sensor_id;sensor_type;location;lat;lon;timestamp;temperature;humidity
22633;DHT22;11483;55.828;37.488;2022-09-17T00:00:15;11.90;99.90
22633;DHT22;11483;55.828;37.488;2022-09-17T00:02:42;11.90;99.90
22633;DHT22;11483;55.828;37.488;2022-09-17T00:05:12;11.80;99.90
22633;DHT22;11483;55.828;37.488;2022-09-17T00:07:38;11.80;99.90
22633;DHT22;11483;55.828;37.488;2022-09-17T00:10:04;11.70;99.90
22633;DHT22;11483;55.828;37.488;2022-09-17T00:12:31;11.70;99.90
22633;DHT22;11483;55.828;37.488;2022-09-17T00:14:57;11.70;99.90
22633;DHT22;11483;55.828;37.488;2022-09-17T00:17:22;11.60;99.90
22633;DHT22;11483;55.828;37.488;2022-09-17T00:19:48;11.60;99.90
22633;DHT22;11483;55.828;37.488;2022-09-17T00:22:14;11.50;99.90
22633;DHT22;11483;55.828;37.488;2022-09-17T00:24:40;11.50;99.90
22633;DHT22;11483;55.828;37.488;2022-09-17T00:27:06;11.40;99.90
22633;DHT22;11483;55.828;37.488;2022-09-17T00:29:32;11.40;99.90
22633;DHT22;11483;55.828;37.488;2022-09-17T00:31:58;11.40;99.90
22633;DHT22;11483;55.828;37.488;2022-09-17T00:34:24;11.30;99.90
22633;DHT22;11483;55.828;37.488;2022-09-17T00:36:50;11.30;99.90
22633;DHT22;11483;55.828;37.488;2022-09-17T00:39:16;11.30;99.90
22633;DHT22;11483;55.828;37.488;2022-09-17T00:41:42;11.20;99.90
22633;DHT22;11483;55.828;37.488;2022-09-17T00:45:00;11.20;99.90
22633;DHT22;11483;55.828;37.488;2022-09-17T00:49:59;11.10;99.90
22633;DHT22;11483;55.828;37.488;2022-09-17T00:52:32;11.10;99.90
22633;DHT22;11483;55.828;37.488;2022-09-17T00:55:29;11.00;99.90
22633;DHT22;11483;55.828;37.488;2022-09-17T00:57:56;10.90;99.90
22633;DHT22;11483;55.828;37.488;2022-09-17T01:00:24;11.00;99.90
22633;DHT22;11483;55.828;37.488;2022-09-17T01:02:52;10.90;99.90
22633;DHT22;11483;55.828;37.488;2022-09-17T01:05:23;10.90;99.90
22633;DHT22;11483;55.828;37.488;2022-09-17T01:08:51;10.90;99.90
22633;DHT22;11483;55.828;37.488;2022-09-17T01:11:16;10.90;99.90
22633;DHT22;11483;55.828;37.488;2022-09-17T01:16:45;10.80;99.90
22633;DHT22;11483;55.828;37.488;2022-09-17T01:19:45;10.80;99.90
22633;DHT22;11483;55.828;37.488;2022-09-17T01:31:17;10.60;99.90
22633;DHT22;11483;55.828;37.488;2022-09-17T01:34:30;10.60;99.90
22633;DHT22;11483;55.828;37.488;2022-09-17T01:37:05;10.60;99.90
22633;DHT22;11483;55.828;37.488;2022-09-17T01:39:52;10.60;99.90
22633;DHT22;11483;55.828;37.488;2022-09-17T01:42:23;10.60;99.90
22633;DHT22;11483;55.828;37.488;2022-09-17T01:47:55;10.50;99.90
22633;DHT22;11483;55.828;37.488;2022-09-17T01:51:05;10.50;99.90
22633;DHT22;11483;55.828;37.488;2022-09-17T01:55:54;10.50;99.90
22633;DHT22;11483;55.828;37.488;2022-09-17T01:58:28;10.40;99.90
22633;DHT22;11483;55.828;37.488;2022-09-17T02:01:00;10.40;99.90
22633;DHT22;11483;55.828;37.488;2022-09-17T02:03:55;10.40;99.90
22633;DHT22;11483;55.828;37.488;2022-09-17T02:06:18;10.40;99.90
22633;DHT22;11483;55.828;37.488;2022-09-17T02:08:53;10.30;99.90
22633;DHT22;11483;55.828;37.488;2022-09-17T02:11:21;10.30;99.90
22633;DHT22;11483;55.828;37.488;2022-09-17T02:13:59;10.30;99.90
22633;DHT22;11483;55.828;37.488;2022-09-17T02:16:29;10.30;99.90
22633;DHT22;11483;55.828;37.488;2022-09-17T02:24:25;10.30;99.90
22633;DHT22;11483;55.828;37.488;2022-09-17T02:28:11;10.30;99.90
22633;DHT22;11483;55.828;37.488;2022-09-17T02:30:12;10.20;99.90
22633;DHT22;11483;55.828;37.488;2022-09-17T02:32:38;10.20;99.90
22633;DHT22;11483;55.828;37.488;2022-09-17T02:35:05;10.20;99.90
22633;DHT22;11483;55.828;37.488;2022-09-17T02:37:31;10.20;99.90
22633;DHT22;11483;55.828;37.488;2022-09-17T02:39:57;10.20;99.90
22633;DHT22;11483;55.828;37.488;2022-09-17T02:42:32;10.20;99.90
22633;DHT22;11483;55.828;37.488;2022-09-17T02:51:08;10.10;99.90
22633;DHT22;11483;55.828;37.488;2022-09-17T02:53:48;10.20;99.90
22633;DHT22;11483;55.828;37.488;2022-09-17T03:02:10;10.10;99.90
22633;DHT22;11483;55.828;37.488;2022-09-17T03:04:37;10.10;99.90
22633;DHT22;11483;55.828;37.488;2022-09-17T03:07:08;10.00;99.90
22633;DHT22;11483;55.828;37.488;2022-09-17T03:09:37;10.00;99.90
22633;DHT22;11483;55.828;37.488;2022-09-17T03:12:03;10.00;99.90
22633;DHT22;11483;55.828;37.488;2022-09-17T03:14:29;10.00;99.90
22633;DHT22;11483;55.828;37.488;2022-09-17T03:16:55;10.00;99.90
22633;DHT22;11483;55.828;37.488;2022-09-17T03:19:22;10.10;99.90
22633;DHT22;11483;55.828;37.488;2022-09-17T03:21:48;10.10;99.90
22633;DHT22;11483;55.828;37.488;2022-09-17T03:24:14;10.10;99.90
22633;DHT22;11483;55.828;37.488;2022-09-17T03:26:39;10.10;99.90
22633;DHT22;11483;55.828;37.488;2022-09-17T03:29:05;10.10;99.90
22633;DHT22;11483;55.828;37.488;2022-09-17T03:31:31;10.10;99.90
22633;DHT22;11483;55.828;37.488;2022-09-17T03:33:57;10.10;99.90
22633;DHT22;11483;55.828;37.488;2022-09-17T03:36:23;10.10;99.90
22633;DHT22;11483;55.828;37.488;2022-09-17T03:38:56;10.10;99.90
22633;DHT22;11483;55.828;37.488;2022-09-17T03:41:22;10.10;99.90
22633;DHT22;11483;55.828;37.488;2022-09-17T03:43:48;10.10;99.90
22633;DHT22;11483;55.828;37.488;2022-09-17T03:46:14;10.00;99.90
22633;DHT22;11483;55.828;37.488;2022-09-17T03:48:40;10.00;99.90
22633;DHT22;11483;55.828;37.488;2022-09-17T03:51:06;10.10;99.90
22633;DHT22;11483;55.828;37.488;2022-09-17T03:53:32;10.00;99.90
22633;DHT22;11483;55.828;37.488;2022-09-17T03:56:00;10.00;99.90
22633;DHT22;11483;55.828;37.488;2022-09-17T03:58:27;10.00;99.90
22633;DHT22;11483;55.828;37.488;2022-09-17T04:00:54;10.00;99.90
22633;DHT22;11483;55.828;37.488;2022-09-17T04:03:23;10.00;99.90
22633;DHT22;11483;55.828;37.488;2022-09-17T04:05:49;10.00;99.90
22633;DHT22;11483;55.828;37.488;2022-09-17T04:08:15;10.00;99.90
22633;DHT22;11483;55.828;37.488;2022-09-17T04:10:42;10.00;99.90
22633;DHT22;11483;55.828;37.488;2022-09-17T04:13:09;10.10;99.90
22633;DHT22;11483;55.828;37.488;2022-09-17T04:15:34;10.10;99.90
22633;DHT22;11483;55.828;37.488;2022-09-17T04:18:00;10.10;99.90
22633;DHT22;11483;55.828;37.488;2022-09-17T04:20:26;10.10;99.90
22633;DHT22;11483;55.828;37.488;2022-09-17T04:22:53;10.10;99.90
22633;DHT22;11483;55.828;37.488;2022-09-17T04:25:19;10.10;99.90
22633;DHT22;11483;55.828;37.488;2022-09-17T04:27:45;10.20;99.90
22633;DHT22;11483;55.828;37.488;2022-09-17T04:30:13;10.20;99.90
22633;DHT22;11483;55.828;37.488;2022-09-17T04:32:40;10.20;99.90
22633;DHT22;11483;55.828;37.488;2022-09-17T04:35:06;10.20;99.90
22633;DHT22;11483;55.828;37.488;2022-09-17T04:37:32;10.20;99.90
22633;DHT22;11483;55.828;37.488;2022-09-17T04:39:58;10.20;99.90
22633;DHT22;11483;55.828;37.488;2022-09-17T04:42:24;10.20;99.90
22633;DHT22;11483;55.828;37.488;2022-09-17T04:44:50;10.30;99.90
22633;DHT22;11483;55.828;37.488;2022-09-17T04:47:16;10.30;99.90
22633;DHT22;11483;55.828;37.488;2022-09-17T04:49:42;10.40;99.90
22633;DHT22;11483;55.828;37.488;2022-09-17T04:52:08;10.40;99.90
22633;DHT22;11483;55.828;37.488;2022-09-17T04:54:33;10.40;99.90
22633;DHT22;11483;55.828;37.488;2022-09-17T04:57:00;10.50;99.90
22633;DHT22;11483;55.828;37.488;2022-09-17T04:59:26;10.50;99.90
22633;DHT22;11483;55.828;37.488;2022-09-17T05:01:51;10.50;99.90
22633;DHT22;11483;55.828;37.488;2022-09-17T05:04:17;10.60;99.90
22633;DHT22;11483;55.828;37.488;2022-09-17T05:06:43;10.70;99.90
22633;DHT22;11483;55.828;37.488;2022-09-17T05:09:09;10.70;99.90
22633;DHT22;11483;55.828;37.488;2022-09-17T05:11:35;10.80;99.90
22633;DHT22;11483;55.828;37.488;2022-09-17T05:14:03;10.90;99.90
22633;DHT22;11483;55.828;37.488;2022-09-17T05:16:29;10.90;99.90
22633;DHT22;11483;55.828;37.488;2022-09-17T05:18:55;11.00;99.90
22633;DHT22;11483;55.828;37.488;2022-09-17T05:21:22;11.00;99.90
22633;DHT22;11483;55.828;37.488;2022-09-17T05:23:48;11.00;99.90
22633;DHT22;11483;55.828;37.488;2022-09-17T05:26:14;11.10;99.90
22633;DHT22;11483;55.828;37.488;2022-09-17T05:28:40;11.10;99.90
22633;DHT22;11483;55.828;37.488;2022-09-17T05:31:07;11.30;99.90
22633;DHT22;11483;55.828;37.488;2022-09-17T05:33:33;11.30;99.90
22633;DHT22;11483;55.828;37.488;2022-09-17T05:35:59;11.30;99.90
22633;DHT22;11483;55.828;37.488;2022-09-17T05:38:25;11.40;99.90
22633;DHT22;11483;55.828;37.488;2022-09-17T05:40:51;11.50;99.90
22633;DHT22;11483;55.828;37.488;2022-09-17T05:43:17;11.70;99.90
22633;DHT22;11483;55.828;37.488;2022-09-17T05:45:43;11.80;99.90
22633;DHT22;11483;55.828;37.488;2022-09-17T05:48:12;12.00;99.90
22633;DHT22;11483;55.828;37.488;2022-09-17T05:50:39;12.20;99.90
22633;DHT22;11483;55.828;37.488;2022-09-17T05:53:12;12.30;99.90
22633;DHT22;11483;55.828;37.488;2022-09-17T05:55:39;12.30;99.90
22633;DHT22;11483;55.828;37.488;2022-09-17T05:58:13;12.30;99.90
22633;DHT22;11483;55.828;37.488;2022-09-17T06:00:40;12.40;99.90
22633;DHT22;11483;55.828;37.488;2022-09-17T06:03:10;12.60;99.90
22633;DHT22;11483;55.828;37.488;2022-09-17T06:05:36;12.90;99.90
22633;DHT22;11483;55.828;37.488;2022-09-17T06:08:02;13.10;99.90
22633;DHT22;11483;55.828;37.488;2022-09-17T06:10:28;13.40;99.90
22633;DHT22;11483;55.828;37.488;2022-09-17T06:12:58;13.50;99.90
22633;DHT22;11483;55.828;37.488;2022-09-17T06:15:25;13.70;99.90
22633;DHT22;11483;55.828;37.488;2022-09-17T06:17:51;13.80;99.90
22633;DHT22;11483;55.828;37.488;2022-09-17T06:20:18;14.00;99.90
22633;DHT22;11483;55.828;37.488;2022-09-17T06:22:44;14.30;99.90
22633;DHT22;11483;55.828;37.488;2022-09-17T06:25:11;14.40;99.90
22633;DHT22;11483;55.828;37.488;2022-09-17T06:27:37;14.70;99.90
22633;DHT22;11483;55.828;37.488;2022-09-17T06:30:04;14.80;99.90
22633;DHT22;11483;55.828;37.488;2022-09-17T06:32:31;14.90;99.90
22633;DHT22;11483;55.828;37.488;2022-09-17T06:34:57;15.10;99.90
22633;DHT22;11483;55.828;37.488;2022-09-17T06:37:31;15.10;99.90
22633;DHT22;11483;55.828;37.488;2022-09-17T06:39:58;15.10;99.90
22633;DHT22;11483;55.828;37.488;2022-09-17T06:42:24;15.00;99.90
22633;DHT22;11483;55.828;37.488;2022-09-17T06:44:51;15.10;99.90
22633;DHT22;11483;55.828;37.488;2022-09-17T06:47:17;15.10;99.90
22633;DHT22;11483;55.828;37.488;2022-09-17T06:49:42;15.20;99.90
22633;DHT22;11483;55.828;37.488;2022-09-17T06:52:08;15.50;99.90
22633;DHT22;11483;55.828;37.488;2022-09-17T06:54:34;15.60;99.90
22633;DHT22;11483;55.828;37.488;2022-09-17T06:57:00;15.80;99.90
22633;DHT22;11483;55.828;37.488;2022-09-17T06:59:26;16.00;99.90
22633;DHT22;11483;55.828;37.488;2022-09-17T07:01:52;16.10;99.90
22633;DHT22;11483;55.828;37.488;2022-09-17T07:04:18;15.70;99.90
22633;DHT22;11483;55.828;37.488;2022-09-17T07:06:44;15.40;99.90
22633;DHT22;11483;55.828;37.488;2022-09-17T07:09:11;15.40;99.90
22633;DHT22;11483;55.828;37.488;2022-09-17T07:11:37;15.50;99.90
22633;DHT22;11483;55.828;37.488;2022-09-17T07:14:03;15.60;99.90
22633;DHT22;11483;55.828;37.488;2022-09-17T07:16:29;15.60;99.90
22633;DHT22;11483;55.828;37.488;2022-09-17T07:19:00;15.40;99.90
22633;DHT22;11483;55.828;37.488;2022-09-17T07:21:26;15.50;99.90
22633;DHT22;11483;55.828;37.488;2022-09-17T07:23:52;15.50;99.90
22633;DHT22;11483;55.828;37.488;2022-09-17T07:26:17;15.70;99.90
22633;DHT22;11483;55.828;37.488;2022-09-17T07:28:44;15.60;99.90
22633;DHT22;11483;55.828;37.488;2022-09-17T07:31:10;15.30;99.90
22633;DHT22;11483;55.828;37.488;2022-09-17T07:33:36;15.40;99.90
22633;DHT22;11483;55.828;37.488;2022-09-17T07:36:03;15.50;99.90
22633;DHT22;11483;55.828;37.488;2022-09-17T07:38:29;15.60;99.90
22633;DHT22;11483;55.828;37.488;2022-09-17T07:40:56;15.80;99.90
22633;DHT22;11483;55.828;37.488;2022-09-17T07:43:23;15.90;99.90
22633;DHT22;11483;55.828;37.488;2022-09-17T07:45:49;15.90;99.90
22633;DHT22;11483;55.828;37.488;2022-09-17T07:48:14;15.90;99.90
22633;DHT22;11483;55.828;37.488;2022-09-17T07:50:40;16.20;99.90
22633;DHT22;11483;55.828;37.488;2022-09-17T07:53:06;16.20;99.90
22633;DHT22;11483;55.828;37.488;2022-09-17T07:55:32;16.20;99.90
22633;DHT22;11483;55.828;37.488;2022-09-17T07:57:58;16.30;99.90
22633;DHT22;11483;55.828;37.488;2022-09-17T08:00:24;16.40;99.90
22633;DHT22;11483;55.828;37.488;2022-09-17T08:02:54;16.30;99.90
22633;DHT22;11483;55.828;37.488;2022-09-17T08:05:20;16.30;99.90
22633;DHT22;11483;55.828;37.488;2022-09-17T08:07:54;16.40;99.90
22633;DHT22;11483;55.828;37.488;2022-09-17T08:10:20;16.60;99.90
22633;DHT22;11483;55.828;37.488;2022-09-17T08:12:47;16.80;99.90
22633;DHT22;11483;55.828;37.488;2022-09-17T08:15:17;17.10;99.90
22633;DHT22;11483;55.828;37.488;2022-09-17T08:17:44;17.40;99.90
22633;DHT22;11483;55.828;37.488;2022-09-17T08:20:11;17.60;99.90
22633;DHT22;11483;55.828;37.488;2022-09-17T08:22:38;17.80;99.90
22633;DHT22;11483;55.828;37.488;2022-09-17T08:25:05;18.20;99.90
22633;DHT22;11483;55.828;37.488;2022-09-17T08:27:32;18.50;99.90
22633;DHT22;11483;55.828;37.488;2022-09-17T08:29:58;19.30;99.90
22633;DHT22;11483;55.828;37.488;2022-09-17T08:32:25;21.00;99.90
22633;DHT22;11483;55.828;37.488;2022-09-17T08:34:53;22.60;99.90
22633;DHT22;11483;55.828;37.488;2022-09-17T08:37:19;24.00;98.60
22633;DHT22;11483;55.828;37.488;2022-09-17T08:39:45;25.10;93.30
22633;DHT22;11483;55.828;37.488;2022-09-17T08:44:46;24.30;86.00
22633;DHT22;11483;55.828;37.488;2022-09-17T08:47:26;26.40;81.40
22633;DHT22;11483;55.828;37.488;2022-09-17T08:49:59;26.50;80.50
22633;DHT22;11483;55.828;37.488;2022-09-17T08:55:13;27.30;77.30
22633;DHT22;11483;55.828;37.488;2022-09-17T09:01:01;26.80;75.80
22633;DHT22;11483;55.828;37.488;2022-09-17T09:06:14;26.70;71.20
22633;DHT22;11483;55.828;37.488;2022-09-17T09:08:49;25.90;72.10
22633;DHT22;11483;55.828;37.488;2022-09-17T09:11:23;25.50;70.80
22633;DHT22;11483;55.828;37.488;2022-09-17T09:14:15;25.90;72.10
22633;DHT22;11483;55.828;37.488;2022-09-17T09:16:40;26.20;70.10
22633;DHT22;11483;55.828;37.488;2022-09-17T09:19:20;26.40;71.00
22633;DHT22;11483;55.828;37.488;2022-09-17T09:22:12;26.50;68.00
22633;DHT22;11483;55.828;37.488;2022-09-17T09:27:27;26.30;67.40
22633;DHT22;11483;55.828;37.488;2022-09-17T09:30:10;26.60;64.80
22633;DHT22;11483;55.828;37.488;2022-09-17T09:35:33;26.50;65.30
22633;DHT22;11483;55.828;37.488;2022-09-17T09:38:32;26.10;65.90
22633;DHT22;11483;55.828;37.488;2022-09-17T09:41:11;25.90;64.80
22633;DHT22;11483;55.828;37.488;2022-09-17T09:44:30;26.90;66.90
22633;DHT22;11483;55.828;37.488;2022-09-17T09:52:42;21.40;73.40
22633;DHT22;11483;55.828;37.488;2022-09-17T09:58:30;19.40;78.30
22633;DHT22;11483;55.828;37.488;2022-09-17T10:00:58;18.90;82.50
22633;DHT22;11483;55.828;37.488;2022-09-17T10:03:30;20.00;84.90
22633;DHT22;11483;55.828;37.488;2022-09-17T10:08:31;22.20;74.40
22633;DHT22;11483;55.828;37.488;2022-09-17T10:11:02;21.50;73.40
22633;DHT22;11483;55.828;37.488;2022-09-17T10:13:31;20.70;75.00
22633;DHT22;11483;55.828;37.488;2022-09-17T10:16:21;19.90;76.50
22633;DHT22;11483;55.828;37.488;2022-09-17T10:21:39;18.70;81.00
22633;DHT22;11483;55.828;37.488;2022-09-17T10:24:24;18.40;82.50
22633;DHT22;11483;55.828;37.488;2022-09-17T10:26:59;18.20;83.80
22633;DHT22;11483;55.828;37.488;2022-09-17T10:29:25;18.80;86.60
22633;DHT22;11483;55.828;37.488;2022-09-17T10:31:55;19.50;83.60
22633;DHT22;11483;55.828;37.488;2022-09-17T10:34:24;19.40;83.30
22633;DHT22;11483;55.828;37.488;2022-09-17T10:36:50;19.20;83.60
22633;DHT22;11483;55.828;37.488;2022-09-17T10:39:35;19.10;84.70
22633;DHT22;11483;55.828;37.488;2022-09-17T10:42:04;20.90;82.80
22633;DHT22;11483;55.828;37.488;2022-09-17T10:44:35;22.10;77.40
22633;DHT22;11483;55.828;37.488;2022-09-17T10:47:13;21.60;77.00
22633;DHT22;11483;55.828;37.488;2022-09-17T10:49:45;21.00;78.50
22633;DHT22;11483;55.828;37.488;2022-09-17T10:52:26;20.40;79.70
22633;DHT22;11483;55.828;37.488;2022-09-17T11:06:24;21.70;76.70
22633;DHT22;11483;55.828;37.488;2022-09-17T11:11:43;20.40;78.30
22633;DHT22;11483;55.828;37.488;2022-09-17T11:20:04;20.10;78.90
22633;DHT22;11483;55.828;37.488;2022-09-17T11:31:20;18.40;84.80
22633;DHT22;11483;55.828;37.488;2022-09-17T11:37:31;18.00;87.40
22633;DHT22;11483;55.828;37.488;2022-09-17T11:42:51;22.30;81.00
22633;DHT22;11483;55.828;37.488;2022-09-17T11:45:23;24.00;73.90
22633;DHT22;11483;55.828;37.488;2022-09-17T11:48:13;23.50;72.90
22633;DHT22;11483;55.828;37.488;2022-09-17T11:50:44;22.20;74.20
22633;DHT22;11483;55.828;37.488;2022-09-17T11:55:58;19.80;79.10
22633;DHT22;11483;55.828;37.488;2022-09-17T11:58:45;19.30;82.60
22633;DHT22;11483;55.828;37.488;2022-09-17T12:03:52;20.40;80.90
22633;DHT22;11483;55.828;37.488;2022-09-17T12:09:22;24.10;77.60
22633;DHT22;11483;55.828;37.488;2022-09-17T12:11:58;26.00;71.50
22633;DHT22;11483;55.828;37.488;2022-09-17T12:14:40;26.50;68.60
22633;DHT22;11483;55.828;37.488;2022-09-17T12:17:15;25.90;65.60
22633;DHT22;11483;55.828;37.488;2022-09-17T12:19:46;24.20;68.20
22633;DHT22;11483;55.828;37.488;2022-09-17T12:22:29;22.80;71.60
22633;DHT22;11483;55.828;37.488;2022-09-17T12:24:55;21.50;75.10
22633;DHT22;11483;55.828;37.488;2022-09-17T12:27:27;20.10;78.50
22633;DHT22;11483;55.828;37.488;2022-09-17T12:32:38;18.60;83.80
22633;DHT22;11483;55.828;37.488;2022-09-17T12:45:15;18.90;90.00
22633;DHT22;11483;55.828;37.488;2022-09-17T12:47:52;18.70;90.60
22633;DHT22;11483;55.828;37.488;2022-09-17T12:53:27;18.30;92.20
22633;DHT22;11483;55.828;37.488;2022-09-17T12:56:01;18.30;92.70
22633;DHT22;11483;55.828;37.488;2022-09-17T13:03:45;19.20;92.20
22633;DHT22;11483;55.828;37.488;2022-09-17T13:06:33;18.90;92.30
22633;DHT22;11483;55.828;37.488;2022-09-17T13:20:20;17.60;95.90
22633;DHT22;11483;55.828;37.488;2022-09-17T13:22:51;17.70;96.30
22633;DHT22;11483;55.828;37.488;2022-09-17T13:25:20;17.90;96.50
22633;DHT22;11483;55.828;37.488;2022-09-17T13:27:48;18.80;95.60
22633;DHT22;11483;55.828;37.488;2022-09-17T13:30:18;19.30;93.70
22633;DHT22;11483;55.828;37.488;2022-09-17T13:32:49;19.30;93.70
22633;DHT22;11483;55.828;37.488;2022-09-17T13:40:31;18.40;93.90
22633;DHT22;11483;55.828;37.488;2022-09-17T13:48:23;17.80;95.80
22633;DHT22;11483;55.828;37.488;2022-09-17T13:50:52;17.50;96.70
22633;DHT22;11483;55.828;37.488;2022-09-17T13:53:21;17.50;97.30
22633;DHT22;11483;55.828;37.488;2022-09-17T13:55:53;17.60;97.90
22633;DHT22;11483;55.828;37.488;2022-09-17T14:00:50;19.60;95.40
22633;DHT22;11483;55.828;37.488;2022-09-17T14:08:55;19.00;94.70
22633;DHT22;11483;55.828;37.488;2022-09-17T14:13:52;18.30;96.40
22633;DHT22;11483;55.828;37.488;2022-09-17T14:22:30;17.50;98.50
22633;DHT22;11483;55.828;37.488;2022-09-17T14:32:50;15.60;99.90
22633;DHT22;11483;55.828;37.488;2022-09-17T14:35:36;14.90;99.90
22633;DHT22;11483;55.828;37.488;2022-09-17T14:38:15;15.20;99.90
22633;DHT22;11483;55.828;37.488;2022-09-17T14:40:46;16.20;99.90
22633;DHT22;11483;55.828;37.488;2022-09-17T14:45:54;17.50;99.90
22633;DHT22;11483;55.828;37.488;2022-09-17T14:48:33;18.10;99.90
22633;DHT22;11483;55.828;37.488;2022-09-17T14:56:10;19.00;99.90
22633;DHT22;11483;55.828;37.488;2022-09-17T14:58:40;19.10;99.90
22633;DHT22;11483;55.828;37.488;2022-09-17T15:01:24;19.00;99.90
22633;DHT22;11483;55.828;37.488;2022-09-17T15:06:39;18.50;99.90
22633;DHT22;11483;55.828;37.488;2022-09-17T15:09:05;18.20;99.90
22633;DHT22;11483;55.828;37.488;2022-09-17T15:11:34;17.90;99.90
22633;DHT22;11483;55.828;37.488;2022-09-17T15:14:04;17.40;99.90
22633;DHT22;11483;55.828;37.488;2022-09-17T15:16:31;16.90;99.90
22633;DHT22;11483;55.828;37.488;2022-09-17T15:19:00;16.50;99.90
22633;DHT22;11483;55.828;37.488;2022-09-17T15:21:43;16.30;99.90
22633;DHT22;11483;55.828;37.488;2022-09-17T15:26:52;16.30;99.90
22633;DHT22;11483;55.828;37.488;2022-09-17T15:29:24;16.20;99.90
22633;DHT22;11483;55.828;37.488;2022-09-17T15:31:51;16.00;99.90
22633;DHT22;11483;55.828;37.488;2022-09-17T15:34:17;15.80;99.90
22633;DHT22;11483;55.828;37.488;2022-09-17T15:37:05;15.70;99.90
22633;DHT22;11483;55.828;37.488;2022-09-17T15:39:40;15.60;99.90
22633;DHT22;11483;55.828;37.488;2022-09-17T15:42:16;15.60;99.90
22633;DHT22;11483;55.828;37.488;2022-09-17T15:44:42;15.40;99.90
22633;DHT22;11483;55.828;37.488;2022-09-17T15:50:12;15.10;99.90
22633;DHT22;11483;55.828;37.488;2022-09-17T15:52:39;14.90;99.90
22633;DHT22;11483;55.828;37.488;2022-09-17T15:55:25;14.70;99.90
22633;DHT22;11483;55.828;37.488;2022-09-17T15:57:55;14.60;99.90
22633;DHT22;11483;55.828;37.488;2022-09-17T16:00:22;14.70;99.90
22633;DHT22;11483;55.828;37.488;2022-09-17T16:02:48;14.70;99.90
22633;DHT22;11483;55.828;37.488;2022-09-17T16:07:46;14.50;99.90
22633;DHT22;11483;55.828;37.488;2022-09-17T16:10:14;14.50;99.90
22633;DHT22;11483;55.828;37.488;2022-09-17T16:12:40;14.40;99.90
22633;DHT22;11483;55.828;37.488;2022-09-17T16:15:07;14.30;99.90
22633;DHT22;11483;55.828;37.488;2022-09-17T16:22:40;14.00;99.90
22633;DHT22;11483;55.828;37.488;2022-09-17T16:25:07;13.90;99.90
22633;DHT22;11483;55.828;37.488;2022-09-17T16:27:42;13.90;99.90
22633;DHT22;11483;55.828;37.488;2022-09-17T16:30:14;13.80;99.90
22633;DHT22;11483;55.828;37.488;2022-09-17T16:32:41;13.80;99.90
22633;DHT22;11483;55.828;37.488;2022-09-17T16:35:11;13.80;99.90
22633;DHT22;11483;55.828;37.488;2022-09-17T16:37:37;13.80;99.90
22633;DHT22;11483;55.828;37.488;2022-09-17T16:40:03;13.20;99.90
22633;DHT22;11483;55.828;37.488;2022-09-17T16:42:30;13.70;99.90
22633;DHT22;11483;55.828;37.488;2022-09-17T16:44:56;13.80;99.90
22633;DHT22;11483;55.828;37.488;2022-09-17T16:47:24;13.80;99.90
22633;DHT22;11483;55.828;37.488;2022-09-17T16:49:50;13.80;99.90
22633;DHT22;11483;55.828;37.488;2022-09-17T16:52:16;13.80;99.90
22633;DHT22;11483;55.828;37.488;2022-09-17T16:54:42;13.80;99.90
22633;DHT22;11483;55.828;37.488;2022-09-17T16:57:08;13.90;99.90
22633;DHT22;11483;55.828;37.488;2022-09-17T16:59:34;13.80;99.90
22633;DHT22;11483;55.828;37.488;2022-09-17T17:02:01;13.80;99.90
22633;DHT22;11483;55.828;37.488;2022-09-17T17:04:27;13.80;99.90
22633;DHT22;11483;55.828;37.488;2022-09-17T17:06:53;13.80;99.90
22633;DHT22;11483;55.828;37.488;2022-09-17T17:09:19;13.80;99.90
22633;DHT22;11483;55.828;37.488;2022-09-17T17:11:45;13.80;99.90
22633;DHT22;11483;55.828;37.488;2022-09-17T17:14:12;13.80;99.90
22633;DHT22;11483;55.828;37.488;2022-09-17T17:16:41;13.80;99.90
22633;DHT22;11483;55.828;37.488;2022-09-17T17:19:08;13.70;99.90
22633;DHT22;11483;55.828;37.488;2022-09-17T17:21:34;13.80;99.90
22633;DHT22;11483;55.828;37.488;2022-09-17T17:24:00;13.70;99.90
22633;DHT22;11483;55.828;37.488;2022-09-17T17:26:26;13.70;99.90
22633;DHT22;11483;55.828;37.488;2022-09-17T17:28:52;13.70;99.90
22633;DHT22;11483;55.828;37.488;2022-09-17T17:31:18;13.70;99.90
22633;DHT22;11483;55.828;37.488;2022-09-17T17:33:45;13.70;99.90
22633;DHT22;11483;55.828;37.488;2022-09-17T17:36:11;13.70;99.90
22633;DHT22;11483;55.828;37.488;2022-09-17T17:38:37;13.90;99.90
22633;DHT22;11483;55.828;37.488;2022-09-17T17:41:11;13.90;99.90
22633;DHT22;11483;55.828;37.488;2022-09-17T17:43:37;13.90;99.90
22633;DHT22;11483;55.828;37.488;2022-09-17T17:46:08;13.90;99.90
22633;DHT22;11483;55.828;37.488;2022-09-17T17:48:35;13.90;99.90
22633;DHT22;11483;55.828;37.488;2022-09-17T17:51:05;13.90;99.90
22633;DHT22;11483;55.828;37.488;2022-09-17T17:53:31;13.80;99.90
22633;DHT22;11483;55.828;37.488;2022-09-17T17:56:08;13.80;99.90
22633;DHT22;11483;55.828;37.488;2022-09-17T17:58:35;13.70;99.90
22633;DHT22;11483;55.828;37.488;2022-09-17T18:01:16;13.70;99.90
22633;DHT22;11483;55.828;37.488;2022-09-17T18:03:43;13.60;99.90
22633;DHT22;11483;55.828;37.488;2022-09-17T18:06:09;13.60;99.90
22633;DHT22;11483;55.828;37.488;2022-09-17T18:08:40;13.50;99.90
22633;DHT22;11483;55.828;37.488;2022-09-17T18:11:08;13.50;99.90
22633;DHT22;11483;55.828;37.488;2022-09-17T18:13:38;13.50;99.90
22633;DHT22;11483;55.828;37.488;2022-09-17T18:16:05;13.40;99.90
22633;DHT22;11483;55.828;37.488;2022-09-17T18:18:38;13.40;99.90
22633;DHT22;11483;55.828;37.488;2022-09-17T18:21:07;13.40;99.90
22633;DHT22;11483;55.828;37.488;2022-09-17T18:23:34;13.40;99.90
22633;DHT22;11483;55.828;37.488;2022-09-17T18:26:01;13.30;99.90
22633;DHT22;11483;55.828;37.488;2022-09-17T18:28:28;13.20;99.90
22633;DHT22;11483;55.828;37.488;2022-09-17T18:30:55;13.20;99.90
22633;DHT22;11483;55.828;37.488;2022-09-17T18:33:25;13.20;99.90
22633;DHT22;11483;55.828;37.488;2022-09-17T18:35:52;13.30;99.90
22633;DHT22;11483;55.828;37.488;2022-09-17T18:38:22;13.20;99.90
22633;DHT22;11483;55.828;37.488;2022-09-17T18:40:49;13.20;99.90
22633;DHT22;11483;55.828;37.488;2022-09-17T18:43:15;13.30;99.90
22633;DHT22;11483;55.828;37.488;2022-09-17T18:45:41;13.20;99.90
22633;DHT22;11483;55.828;37.488;2022-09-17T18:48:08;13.20;99.90
22633;DHT22;11483;55.828;37.488;2022-09-17T18:50:34;13.20;99.90
22633;DHT22;11483;55.828;37.488;2022-09-17T18:53:01;13.20;99.90
22633;DHT22;11483;55.828;37.488;2022-09-17T18:55:28;13.20;99.90